createdAt,value
2023-02-16T00:01:25.862Z,-0.90
2023-02-16T00:02:57.690Z,-0.91
2023-02-16T00:04:31.327Z,-0.89
2023-02-16T00:06:02.920Z,-0.87
2023-02-16T00:07:34.515Z,-0.86
2023-02-16T00:09:06.087Z,-0.77
2023-02-16T00:10:39.091Z,-0.62
2023-02-16T00:12:37.716Z,-0.62
2023-02-16T00:14:11.515Z,-0.58
2023-02-16T00:15:43.379Z,-0.67
2023-02-16T00:17:15.039Z,-0.71
2023-02-16T00:18:47.034Z,-0.65
2023-02-16T00:20:19.088Z,-0.68
2023-02-16T00:21:53.504Z,-0.81
2023-02-16T00:23:25.134Z,-0.80
2023-02-16T00:24:57.039Z,-0.85
2023-02-16T00:26:31.391Z,-0.94
2023-02-16T00:28:05.957Z,-0.98
2023-02-16T00:29:37.708Z,-0.96
2023-02-16T00:31:22.851Z,-0.95
2023-02-16T00:32:54.582Z,-0.82
2023-02-16T00:34:37.402Z,-0.88
2023-02-16T00:36:09.138Z,-0.93
2023-02-16T00:37:41.063Z,-0.98
2023-02-16T00:39:12.661Z,-1.03
2023-02-16T00:40:44.549Z,-1.04
2023-02-16T00:42:20.245Z,-1.08
2023-02-16T00:43:54.817Z,-1.10
2023-02-16T00:45:26.529Z,-1.14
2023-02-16T00:47:02.340Z,-1.17
2023-02-16T00:48:35.064Z,-1.24
2023-02-16T00:50:14.993Z,-1.28
2023-02-16T00:51:47.260Z,-1.29
2023-02-16T00:53:18.827Z,-1.26
2023-02-16T00:54:50.417Z,-1.22
2023-02-16T00:56:22.642Z,-1.27
2023-02-16T00:57:58.990Z,-1.24
2023-02-16T00:59:30.789Z,-1.20
2023-02-16T01:01:14.900Z,-1.23
2023-02-16T01:02:48.774Z,-1.31
2023-02-16T01:04:23.492Z,-1.37
2023-02-16T01:06:14.534Z,-1.41
2023-02-16T01:08:04.667Z,-1.41
2023-02-16T01:09:56.604Z,-1.45
2023-02-16T01:11:29.194Z,-1.43
2023-02-16T01:13:01.429Z,-1.46
2023-02-16T01:14:33.281Z,-1.45
2023-02-16T01:16:10.052Z,-1.45
2023-02-16T01:17:41.772Z,-1.46
2023-02-16T01:19:14.063Z,-1.46
2023-02-16T01:20:46.916Z,-1.39
2023-02-16T01:22:18.559Z,-1.39
2023-02-16T01:23:50.191Z,-1.41
2023-02-16T01:25:23.992Z,-1.44
2023-02-16T01:26:57.943Z,-1.50
2023-02-16T01:28:29.794Z,-1.52
2023-02-16T01:30:01.438Z,-1.53
2023-02-16T01:31:33.266Z,-1.49
2023-02-16T01:33:08.593Z,-1.50
2023-02-16T01:34:41.264Z,-1.59
2023-02-16T01:36:34.830Z,-1.66
2023-02-16T01:38:06.613Z,-1.74
2023-02-16T01:39:38.175Z,-1.78
2023-02-16T01:41:26.995Z,-1.74
2023-02-16T01:43:20.853Z,-1.77
2023-02-16T01:44:58.591Z,-1.79
2023-02-16T01:46:38.822Z,-1.71
2023-02-16T01:48:32.960Z,-1.81
2023-02-16T01:50:15.791Z,-1.80
2023-02-16T01:52:11.150Z,-1.87
2023-02-16T01:54:06.495Z,-1.94
2023-02-16T01:55:40.774Z,-1.93
2023-02-16T01:57:21.391Z,-1.98
2023-02-16T01:58:58.433Z,-2.05
2023-02-16T02:00:52.736Z,-2.08
2023-02-16T02:02:26.148Z,-2.05
2023-02-16T02:04:16.253Z,-2.07
2023-02-16T02:05:50.154Z,-2.06
2023-02-16T02:07:31.311Z,-1.85
2023-02-16T02:09:09.679Z,-1.87
2023-02-16T02:10:51.634Z,-1.95
2023-02-16T02:12:40.702Z,-2.00
2023-02-16T02:14:20.451Z,-1.95
2023-02-16T02:15:52.192Z,-1.97
2023-02-16T02:17:24.920Z,-1.97
2023-02-16T02:18:56.540Z,-1.94
2023-02-16T02:20:56.819Z,-1.91
2023-02-16T02:23:24.349Z,-1.87
2023-02-16T02:25:04.903Z,-1.79
2023-02-16T02:26:57.704Z,-1.86
2023-02-16T02:28:47.488Z,-1.86
2023-02-16T02:30:50.061Z,-1.89
2023-02-16T02:32:49.847Z,-1.89
2023-02-16T02:34:45.593Z,-1.94
2023-02-16T02:36:43.497Z,-1.99
2023-02-16T02:38:24.080Z,-2.02
2023-02-16T02:40:10.608Z,-2.06
2023-02-16T02:42:05.426Z,-2.11
2023-02-16T02:44:03.965Z,-2.14
2023-02-16T02:45:42.545Z,-2.16
2023-02-16T02:47:14.219Z,-2.02
2023-02-16T02:48:46.771Z,-2.06
2023-02-16T02:50:39.896Z,-2.10
2023-02-16T02:52:13.031Z,-2.12
2023-02-16T02:54:13.455Z,-2.01
2023-02-16T02:56:09.042Z,-2.07
2023-02-16T02:58:03.804Z,-2.07
2023-02-16T02:59:58.272Z,-2.08
2023-02-16T03:01:32.101Z,-2.13
2023-02-16T03:03:34.024Z,-2.17
2023-02-16T03:05:08.748Z,-2.21
2023-02-16T03:06:45.993Z,-2.16
2023-02-16T03:08:22.716Z,-2.19
2023-02-16T03:10:14.378Z,-2.18
2023-02-16T03:12:07.934Z,-2.21
2023-02-16T03:13:44.484Z,-2.25
2023-02-16T03:15:17.413Z,-2.17
2023-02-16T03:17:17.213Z,-2.10
2023-02-16T03:19:07.418Z,-2.13
2023-02-16T03:20:59.412Z,-2.17
2023-02-16T03:22:51.238Z,-2.20
2023-02-16T03:24:46.109Z,-2.16
2023-02-16T03:26:38.271Z,-2.19
2023-02-16T03:28:30.498Z,-2.23
2023-02-16T03:30:04.978Z,-2.20
2023-02-16T03:31:41.228Z,-2.03
2023-02-16T03:33:12.799Z,-1.91
2023-02-16T03:34:44.541Z,-1.99
2023-02-16T03:36:16.264Z,-2.08
2023-02-16T03:37:48.039Z,-2.11
2023-02-16T03:39:20.652Z,-2.14
2023-02-16T03:40:52.884Z,-2.10
2023-02-16T03:42:24.817Z,-2.13
2023-02-16T03:43:56.391Z,-2.08
2023-02-16T03:45:28.575Z,-2.13
2023-02-16T03:47:00.216Z,-2.19
2023-02-16T03:48:31.825Z,-2.19
2023-02-16T03:50:03.566Z,-2.20
2023-02-16T03:51:35.219Z,-2.19
2023-02-16T03:53:07.190Z,-2.24
2023-02-16T03:54:39.057Z,-2.23
2023-02-16T03:56:10.634Z,-2.24
2023-02-16T03:57:42.356Z,-2.23
2023-02-16T03:59:13.975Z,-2.24
2023-02-16T04:00:45.805Z,-2.25
2023-02-16T04:02:17.451Z,-2.20
2023-02-16T04:03:49.203Z,-2.17
2023-02-16T04:05:21.300Z,-2.14
2023-02-16T04:06:53.005Z,-2.19
2023-02-16T04:08:24.586Z,-2.27
2023-02-16T04:09:56.170Z,-2.28
2023-02-16T04:11:46.203Z,-2.25
2023-02-16T04:13:17.903Z,-2.26
2023-02-16T04:14:49.587Z,-2.30
2023-02-16T04:16:21.246Z,-2.32
2023-02-16T04:17:54.117Z,-2.34
2023-02-16T04:19:25.847Z,-2.34
2023-02-16T04:20:57.449Z,-2.37
2023-02-16T04:22:29.112Z,-2.40
2023-02-16T04:24:00.839Z,-2.44
2023-02-16T04:25:32.541Z,-2.48
2023-02-16T04:27:04.323Z,-2.49
2023-02-16T04:28:35.919Z,-2.47
2023-02-16T04:30:11.592Z,-2.49
2023-02-16T04:31:43.329Z,-2.51
2023-02-16T04:33:14.999Z,-2.56
2023-02-16T04:34:46.641Z,-2.56
2023-02-16T04:36:18.218Z,-2.51
2023-02-16T04:37:49.896Z,-2.47
2023-02-16T04:39:21.971Z,-2.48
2023-02-16T04:40:53.556Z,-2.49
2023-02-16T04:42:25.200Z,-2.49
2023-02-16T04:43:56.878Z,-2.48
2023-02-16T04:45:28.440Z,-2.42
2023-02-16T04:47:00.096Z,-2.37
2023-02-16T04:48:31.668Z,-2.39
2023-02-16T04:50:04.027Z,-2.42
2023-02-16T04:51:35.603Z,-2.44
2023-02-16T04:53:07.329Z,-2.34
2023-02-16T04:54:39.101Z,-2.40
2023-02-16T04:56:11.737Z,-2.46
2023-02-16T04:57:43.593Z,-2.50
2023-02-16T04:59:15.842Z,-2.50
2023-02-16T05:00:47.418Z,-2.51
2023-02-16T05:02:19.236Z,-2.56
2023-02-16T05:03:50.787Z,-2.58
2023-02-16T05:05:22.533Z,-2.63
2023-02-16T05:06:54.439Z,-2.69
2023-02-16T05:08:26.286Z,-2.68
2023-02-16T05:09:57.911Z,-2.72
2023-02-16T05:11:48.389Z,-2.74
2023-02-16T05:13:38.582Z,-2.72
2023-02-16T05:15:10.240Z,-2.76
2023-02-16T05:16:42.299Z,-2.80
2023-02-16T05:18:14.268Z,-2.80
2023-02-16T05:19:51.506Z,-2.70
2023-02-16T05:21:31.754Z,-2.66
2023-02-16T05:23:03.412Z,-2.62
2023-02-16T05:24:35.600Z,-2.69
2023-02-16T05:26:07.287Z,-2.74
2023-02-16T05:27:38.949Z,-2.75
2023-02-16T05:29:10.650Z,-2.73
2023-02-16T05:30:42.284Z,-2.70
2023-02-16T05:32:14.322Z,-2.67
2023-02-16T05:33:46.015Z,-2.67
2023-02-16T05:35:17.606Z,-2.68
2023-02-16T05:36:49.721Z,-2.69
2023-02-16T05:38:21.348Z,-2.72
2023-02-16T05:39:53.056Z,-2.79
2023-02-16T05:41:24.873Z,-2.82
2023-02-16T05:42:56.474Z,-2.81
2023-02-16T05:44:28.374Z,-2.87
2023-02-16T05:46:00.088Z,-2.92
2023-02-16T05:47:31.978Z,-2.91
2023-02-16T05:49:05.229Z,-2.88
2023-02-16T05:50:36.837Z,-2.91
2023-02-16T05:52:10.360Z,-2.96
2023-02-16T05:53:42.437Z,-2.99
2023-02-16T05:55:14.007Z,-2.99
2023-02-16T05:56:53.142Z,-2.95
2023-02-16T05:58:24.671Z,-2.97
2023-02-16T05:59:56.314Z,-2.95
2023-02-16T06:01:29.427Z,-2.91
2023-02-16T06:03:01.139Z,-2.94
2023-02-16T06:04:32.788Z,-3.01
2023-02-16T06:06:05.389Z,-3.06
2023-02-16T06:07:37.028Z,-3.09
2023-02-16T06:09:09.440Z,-3.08
2023-02-16T06:10:41.102Z,-3.05
2023-02-16T06:12:12.808Z,-3.06
2023-02-16T06:13:44.381Z,-3.07
2023-02-16T06:15:16.044Z,-3.12
2023-02-16T06:16:49.647Z,-2.97
2023-02-16T06:18:22.479Z,-2.96
2023-02-16T06:19:54.609Z,-3.02
2023-02-16T06:21:26.818Z,-3.04
2023-02-16T06:22:58.397Z,-3.08
2023-02-16T06:24:30.070Z,-3.07
2023-02-16T06:26:01.688Z,-3.05
2023-02-16T06:27:33.517Z,-2.92
2023-02-16T06:29:06.321Z,-2.80
2023-02-16T06:30:37.975Z,-2.92
2023-02-16T06:32:09.849Z,-2.81
2023-02-16T06:33:41.611Z,-2.87
2023-02-16T06:35:13.235Z,-2.88
2023-02-16T06:36:44.847Z,-2.85
2023-02-16T06:38:16.434Z,-2.84
2023-02-16T06:39:48.089Z,-2.87
2023-02-16T06:41:31.826Z,-2.85
2023-02-16T06:43:03.704Z,-2.80
2023-02-16T06:44:35.333Z,-2.77
2023-02-16T06:46:07.042Z,-2.80
2023-02-16T06:47:38.850Z,-2.80
2023-02-16T06:49:18.275Z,-2.77
2023-02-16T06:50:50.049Z,-2.76
2023-02-16T06:52:21.897Z,-2.76
2023-02-16T06:53:53.506Z,-2.82
2023-02-16T06:55:26.382Z,-2.83
2023-02-16T06:56:57.980Z,-2.87
2023-02-16T06:58:29.618Z,-2.84
2023-02-16T07:00:01.180Z,-2.82
2023-02-16T07:01:32.836Z,-2.85
2023-02-16T07:03:04.780Z,-2.84
2023-02-16T07:04:36.781Z,-2.85
2023-02-16T07:06:08.396Z,-2.84
2023-02-16T07:07:39.999Z,-2.77
2023-02-16T07:09:12.955Z,-2.71
2023-02-16T07:10:50.105Z,-2.69
2023-02-16T07:12:22.319Z,-2.59
2023-02-16T07:13:53.907Z,-2.59
2023-02-16T07:15:25.528Z,-2.57
2023-02-16T07:16:59.237Z,-2.59
2023-02-16T07:18:30.895Z,-2.61
2023-02-16T07:20:04.278Z,-2.58
2023-02-16T07:21:35.972Z,-2.57
2023-02-16T07:23:07.651Z,-2.58
2023-02-16T07:24:39.441Z,-2.51
2023-02-16T07:26:11.733Z,-2.56
2023-02-16T07:27:43.424Z,-2.49
2023-02-16T07:29:15.066Z,-2.49
2023-02-16T07:30:46.664Z,-2.45
2023-02-16T07:32:18.294Z,-2.42
2023-02-16T07:33:49.894Z,-2.38
2023-02-16T07:35:22.830Z,-2.33
2023-02-16T07:36:54.657Z,-2.27
2023-02-16T07:38:26.241Z,-2.25
2023-02-16T07:39:57.834Z,-2.23
2023-02-16T07:41:29.464Z,-2.20
2023-02-16T07:43:02.208Z,-2.12
2023-02-16T07:44:33.854Z,-2.08
2023-02-16T07:46:05.729Z,-2.06
2023-02-16T07:47:37.420Z,-2.06
2023-02-16T07:49:09.016Z,-2.04
2023-02-16T07:50:41.024Z,-2.02
2023-02-16T07:52:12.705Z,-1.97
2023-02-16T07:53:44.298Z,-1.93
2023-02-16T07:55:15.961Z,-1.80
2023-02-16T07:56:47.599Z,-1.83
2023-02-16T07:58:28.070Z,-1.85
2023-02-16T07:59:59.719Z,-1.85
2023-02-16T08:01:31.874Z,-1.83
2023-02-16T08:03:04.101Z,-1.73
2023-02-16T08:04:36.009Z,-1.70
2023-02-16T08:06:08.539Z,-1.70
2023-02-16T08:07:41.056Z,-1.61
2023-02-16T08:09:12.745Z,-1.52
2023-02-16T08:10:44.451Z,-1.50
2023-02-16T08:12:17.494Z,-1.46
2023-02-16T08:13:49.943Z,-1.28
2023-02-16T08:15:22.014Z,-1.21
2023-02-16T08:16:55.584Z,-1.19
2023-02-16T08:18:29.808Z,-1.15
2023-02-16T08:20:01.497Z,-1.00
2023-02-16T08:21:34.241Z,-0.91
2023-02-16T08:23:07.757Z,-0.83
2023-02-16T08:24:39.617Z,-0.76
2023-02-16T08:26:11.617Z,-0.68
2023-02-16T08:27:43.290Z,-0.64
2023-02-16T08:29:14.941Z,-0.39
2023-02-16T08:30:46.614Z,-0.37
2023-02-16T08:32:18.787Z,-0.21
2023-02-16T08:33:52.632Z,-0.17
2023-02-16T08:35:24.232Z,-0.12
2023-02-16T08:36:57.224Z,0.06
2023-02-16T08:38:28.935Z,0.03
2023-02-16T08:40:02.571Z,0.13
2023-02-16T08:41:36.450Z,0.21
2023-02-16T08:43:08.074Z,0.35
2023-02-16T08:44:41.014Z,0.41
2023-02-16T08:46:12.842Z,0.64
2023-02-16T08:47:44.540Z,0.68
2023-02-16T08:49:18.710Z,1.01
2023-02-16T08:50:56.187Z,1.22
2023-02-16T08:52:27.983Z,1.41
2023-02-16T08:54:00.975Z,1.41
2023-02-16T08:55:32.600Z,1.60
2023-02-16T08:57:04.472Z,1.90
2023-02-16T08:58:37.163Z,2.49
2023-02-16T09:00:27.587Z,4.40
2023-02-16T09:01:59.989Z,6.23
2023-02-16T09:03:32.669Z,8.42
2023-02-16T09:05:04.403Z,9.08
2023-02-16T09:06:40.861Z,8.61
2023-02-16T09:08:12.869Z,6.71
2023-02-16T09:09:44.506Z,8.17
2023-02-16T09:11:16.654Z,10.93
2023-02-16T09:12:49.906Z,10.22
2023-02-16T09:14:23.062Z,8.35
2023-02-16T09:15:55.677Z,7.99
2023-02-16T09:17:29.110Z,8.11
2023-02-16T09:19:02.015Z,7.09
2023-02-16T09:20:33.789Z,5.77
2023-02-16T09:22:05.445Z,5.19
2023-02-16T09:23:42.703Z,4.96
2023-02-16T09:25:17.047Z,5.01
2023-02-16T09:26:49.743Z,5.09
2023-02-16T09:28:21.537Z,5.27
2023-02-16T09:29:53.524Z,5.57
2023-02-16T09:31:34.387Z,5.30
2023-02-16T09:33:06.581Z,5.43
2023-02-16T09:34:38.575Z,5.35
2023-02-16T09:36:12.884Z,6.08
2023-02-16T09:37:44.510Z,5.95
2023-02-16T09:39:17.116Z,6.51
2023-02-16T09:40:49.466Z,7.93
2023-02-16T09:42:30.494Z,8.83
2023-02-16T09:44:02.090Z,8.02
2023-02-16T09:45:41.074Z,8.53
2023-02-16T09:47:29.476Z,8.28
2023-02-16T09:49:03.773Z,7.96
2023-02-16T09:50:53.033Z,7.39
2023-02-16T09:53:14.047Z,9.44
2023-02-16T09:54:51.284Z,10.21
2023-02-16T09:56:35.355Z,8.24
2023-02-16T09:58:21.647Z,7.61
2023-02-16T10:00:04.762Z,7.25
2023-02-16T10:01:55.198Z,9.06
2023-02-16T10:03:49.228Z,11.09
2023-02-16T10:05:35.368Z,11.57
2023-02-16T10:07:25.382Z,14.29
2023-02-16T10:09:01.935Z,14.23
2023-02-16T10:10:44.543Z,14.89
2023-02-16T10:12:21.108Z,15.97
2023-02-16T10:13:57.371Z,16.66
2023-02-16T10:15:31.319Z,18.07
2023-02-16T10:17:03.045Z,18.07
2023-02-16T10:18:40.737Z,19.45
2023-02-16T10:20:16.412Z,22.13
2023-02-16T10:21:56.488Z,21.45
2023-02-16T10:23:52.494Z,23.27
2023-02-16T10:25:42.282Z,24.41
2023-02-16T10:27:16.598Z,21.14
2023-02-16T10:28:58.953Z,16.76
2023-02-16T10:30:32.763Z,14.41
2023-02-16T10:32:15.398Z,17.42
2023-02-16T10:34:02.412Z,22.17
2023-02-16T10:35:47.763Z,24.73
2023-02-16T10:37:24.121Z,25.71
2023-02-16T10:39:22.987Z,26.22
2023-02-16T10:41:17.939Z,28.24
2023-02-16T10:43:07.351Z,30.01
2023-02-16T10:44:44.568Z,27.84
2023-02-16T10:46:24.804Z,27.88
2023-02-16T10:47:56.636Z,27.66
2023-02-16T10:49:31.369Z,27.74
2023-02-16T10:51:03.843Z,27.88
2023-02-16T10:52:39.628Z,26.68
2023-02-16T10:54:17.228Z,21.75
2023-02-16T10:55:48.968Z,18.47
2023-02-16T10:57:33.044Z,17.78
2023-02-16T10:59:12.909Z,17.54
2023-02-16T11:01:04.233Z,16.87
2023-02-16T11:02:42.972Z,16.53
2023-02-16T11:04:37.922Z,15.62
2023-02-16T11:06:36.664Z,15.70
2023-02-16T11:08:12.799Z,16.24
2023-02-16T11:09:53.993Z,15.77
2023-02-16T11:11:27.987Z,16.19
2023-02-16T11:12:59.731Z,15.80
2023-02-16T11:14:31.655Z,15.78
2023-02-16T11:16:10.193Z,15.91
2023-02-16T11:18:04.913Z,15.26
2023-02-16T11:19:38.073Z,15.04
2023-02-16T11:21:12.304Z,16.17
2023-02-16T11:22:44.061Z,16.21
2023-02-16T11:24:33.419Z,15.37
2023-02-16T11:26:21.505Z,15.83
2023-02-16T11:27:59.090Z,15.32
2023-02-16T11:29:31.641Z,15.69
2023-02-16T11:31:31.968Z,15.97
2023-02-16T11:33:18.434Z,15.62
2023-02-16T11:34:51.321Z,15.47
2023-02-16T11:36:38.318Z,15.52
2023-02-16T11:38:31.926Z,15.77
2023-02-16T11:40:10.892Z,16.06
2023-02-16T11:41:49.588Z,15.80
2023-02-16T11:43:22.163Z,15.59
2023-02-16T11:44:57.218Z,15.55
2023-02-16T11:46:38.257Z,15.62
2023-02-16T11:48:14.841Z,15.46
2023-02-16T11:49:46.867Z,15.34
2023-02-16T11:51:34.719Z,15.08
2023-02-16T11:53:24.057Z,15.05
2023-02-16T11:54:58.108Z,14.89
2023-02-16T11:56:33.461Z,14.73
2023-02-16T11:58:28.090Z,14.60
2023-02-16T12:00:00.724Z,14.34
2023-02-16T12:01:54.344Z,14.29
2023-02-16T12:03:41.794Z,13.85
2023-02-16T12:05:32.382Z,14.03
2023-02-16T12:07:15.699Z,13.93
2023-02-16T12:09:22.800Z,13.89
2023-02-16T12:11:34.058Z,13.74
2023-02-16T12:13:05.644Z,13.79
2023-02-16T12:15:00.302Z,13.91
2023-02-16T12:16:44.060Z,13.71
2023-02-16T12:18:35.442Z,13.57
2023-02-16T12:20:16.032Z,13.46
2023-02-16T12:21:51.205Z,13.44
2023-02-16T12:23:27.444Z,13.49
2023-02-16T12:25:08.342Z,13.63
2023-02-16T12:26:52.557Z,13.60
2023-02-16T12:28:35.650Z,13.36
2023-02-16T12:30:44.906Z,13.42
2023-02-16T12:32:44.373Z,13.52
2023-02-16T12:34:44.012Z,13.62
2023-02-16T12:36:24.699Z,13.51
2023-02-16T12:38:03.694Z,13.77
2023-02-16T12:39:50.755Z,13.95
2023-02-16T12:41:53.211Z,14.02
2023-02-16T12:43:34.758Z,14.14
2023-02-16T12:45:21.473Z,14.04
2023-02-16T12:47:03.631Z,14.06
2023-02-16T12:48:40.178Z,14.05
2023-02-16T12:50:18.759Z,13.97
2023-02-16T12:52:00.349Z,14.14
2023-02-16T12:53:41.244Z,14.18
2023-02-16T12:55:22.184Z,14.30
2023-02-16T12:57:12.589Z,14.25
2023-02-16T12:58:50.108Z,13.95
2023-02-16T13:00:30.081Z,14.04
2023-02-16T13:02:05.648Z,13.97
2023-02-16T13:03:40.058Z,13.80
2023-02-16T13:05:22.407Z,13.86
2023-02-16T13:07:15.827Z,13.82
2023-02-16T13:09:10.204Z,13.75
2023-02-16T13:11:03.409Z,13.95
2023-02-16T13:12:53.824Z,13.90
2023-02-16T13:14:31.683Z,14.18
2023-02-16T13:16:30.837Z,14.14
2023-02-16T13:18:13.067Z,14.23
2023-02-16T13:19:46.779Z,14.34
2023-02-16T13:21:33.319Z,14.06
2023-02-16T13:23:32.520Z,14.06
2023-02-16T13:25:23.170Z,13.94
2023-02-16T13:27:22.698Z,13.89
2023-02-16T13:29:14.888Z,13.88
2023-02-16T13:30:52.318Z,13.87
2023-02-16T13:32:30.279Z,13.86
2023-02-16T13:34:20.068Z,13.98
2023-02-16T13:36:28.296Z,14.03
2023-02-16T13:38:15.027Z,14.21
2023-02-16T13:39:54.188Z,14.13
2023-02-16T13:41:31.853Z,13.94
2023-02-16T13:43:31.885Z,14.13
2023-02-16T13:45:12.607Z,13.97
2023-02-16T13:46:50.207Z,14.09
2023-02-16T13:48:24.622Z,13.82
2023-02-16T13:50:08.630Z,13.89
2023-02-16T13:51:44.264Z,13.73
2023-02-16T13:53:20.052Z,13.87
2023-02-16T13:54:52.306Z,14.05
2023-02-16T13:56:29.830Z,13.73
2023-02-16T13:58:13.494Z,13.67
2023-02-16T13:59:49.643Z,13.55
2023-02-16T14:01:43.109Z,13.56
2023-02-16T14:03:17.650Z,13.38
2023-02-16T14:04:51.225Z,13.48
2023-02-16T14:06:39.920Z,13.51
2023-02-16T14:08:22.169Z,13.42
2023-02-16T14:09:53.929Z,13.17
2023-02-16T14:11:25.744Z,13.29
2023-02-16T14:12:57.477Z,13.26
2023-02-16T14:14:44.143Z,13.29
2023-02-16T14:16:18.297Z,13.43
2023-02-16T14:17:50.171Z,13.43
2023-02-16T14:19:26.679Z,13.57
2023-02-16T14:21:04.328Z,13.67
2023-02-16T14:22:39.392Z,13.67
2023-02-16T14:24:24.997Z,13.79
2023-02-16T14:26:04.949Z,13.79
2023-02-16T14:27:41.675Z,13.90
2023-02-16T14:29:44.619Z,13.94
2023-02-16T14:31:22.951Z,13.93
2023-02-16T14:33:17.901Z,14.03
2023-02-16T14:34:56.199Z,13.96
2023-02-16T14:36:29.251Z,13.79
2023-02-16T14:38:05.716Z,13.69
2023-02-16T14:39:58.460Z,13.65
2023-02-16T14:41:33.920Z,13.64
2023-02-16T14:43:20.473Z,13.48
2023-02-16T14:45:01.734Z,13.52
2023-02-16T14:46:33.829Z,13.35
2023-02-16T14:48:13.968Z,13.45
2023-02-16T14:50:13.247Z,13.31
2023-02-16T14:52:03.138Z,13.31
2023-02-16T14:53:56.205Z,13.31
2023-02-16T14:56:00.135Z,13.34
2023-02-16T14:58:16.121Z,13.41
2023-02-16T14:59:57.965Z,13.31
2023-02-16T15:01:39.208Z,13.31
2023-02-16T15:03:16.321Z,13.23
2023-02-16T15:04:48.328Z,13.24
2023-02-16T15:06:32.261Z,12.98
2023-02-16T15:08:16.940Z,12.90
2023-02-16T15:09:57.193Z,12.99
2023-02-16T15:12:07.633Z,12.74
2023-02-16T15:13:39.641Z,12.87
2023-02-16T15:15:36.378Z,12.80
2023-02-16T15:17:09.477Z,12.76
2023-02-16T15:18:46.475Z,12.81
2023-02-16T15:20:21.596Z,12.75
2023-02-16T15:22:23.093Z,12.59
2023-02-16T15:23:57.432Z,12.61
2023-02-16T15:25:29.483Z,12.49
2023-02-16T15:27:02.850Z,12.60
2023-02-16T15:28:37.473Z,12.53
2023-02-16T15:30:23.505Z,12.39
2023-02-16T15:31:56.813Z,12.36
2023-02-16T15:33:39.512Z,12.39
2023-02-16T15:35:25.845Z,12.36
2023-02-16T15:36:57.613Z,12.26
2023-02-16T15:38:34.739Z,12.24
2023-02-16T15:40:26.561Z,12.05
2023-02-16T15:42:21.788Z,12.33
2023-02-16T15:43:53.718Z,12.26
2023-02-16T15:45:28.663Z,12.25
2023-02-16T15:47:11.186Z,12.27
2023-02-16T15:48:43.096Z,12.18
2023-02-16T15:50:15.381Z,12.29
2023-02-16T15:51:47.780Z,12.07
2023-02-16T15:53:30.484Z,11.96
2023-02-16T15:55:05.602Z,11.93
2023-02-16T15:56:44.992Z,11.82
2023-02-16T15:58:17.058Z,11.63
2023-02-16T15:59:55.844Z,11.41
2023-02-16T16:01:35.383Z,11.36
2023-02-16T16:03:09.557Z,11.26
2023-02-16T16:04:43.709Z,11.17
2023-02-16T16:06:15.464Z,11.00
2023-02-16T16:07:47.507Z,10.99
2023-02-16T16:09:29.244Z,11.22
2023-02-16T16:11:01.086Z,11.21
2023-02-16T16:12:32.822Z,11.21
2023-02-16T16:14:06.219Z,11.21
2023-02-16T16:15:44.172Z,11.05
2023-02-16T16:17:18.582Z,11.10
2023-02-16T16:18:53.495Z,11.27
2023-02-16T16:20:29.131Z,11.30
2023-02-16T16:22:01.339Z,11.32
2023-02-16T16:23:33.105Z,11.08
2023-02-16T16:25:36.767Z,11.07
2023-02-16T16:27:11.100Z,11.00
2023-02-16T16:28:42.804Z,11.08
2023-02-16T16:30:20.745Z,11.14
2023-02-16T16:31:53.610Z,11.27
2023-02-16T16:33:25.390Z,11.47
2023-02-16T16:34:57.052Z,11.42
2023-02-16T16:36:38.176Z,11.43
2023-02-16T16:38:26.874Z,11.39
2023-02-16T16:40:25.452Z,11.18
2023-02-16T16:41:56.993Z,11.09
2023-02-16T16:43:31.661Z,10.92
2023-02-16T16:45:07.230Z,10.93
2023-02-16T16:46:39.258Z,10.91
2023-02-16T16:48:31.729Z,10.89
2023-02-16T16:50:15.331Z,10.80
2023-02-16T16:51:52.089Z,10.76
2023-02-16T16:53:29.509Z,10.73
2023-02-16T16:55:01.329Z,10.62
2023-02-16T16:56:38.771Z,10.63
2023-02-16T16:58:10.566Z,10.60
2023-02-16T16:59:42.190Z,10.80
2023-02-16T17:01:13.962Z,10.67
2023-02-16T17:02:45.921Z,10.73
2023-02-16T17:04:17.590Z,10.95
2023-02-16T17:05:49.230Z,10.90
2023-02-16T17:07:20.794Z,10.71
2023-02-16T17:08:52.611Z,10.63
2023-02-16T17:10:24.935Z,10.89
2023-02-16T17:11:56.629Z,10.74
2023-02-16T17:13:28.513Z,10.54
2023-02-16T17:15:01.632Z,10.40
2023-02-16T17:16:38.592Z,10.31
2023-02-16T17:18:15.855Z,10.18
2023-02-16T17:19:47.462Z,10.04
2023-02-16T17:21:20.078Z,9.92
2023-02-16T17:22:52.019Z,9.93
2023-02-16T17:24:23.790Z,9.89
2023-02-16T17:25:55.354Z,9.82
2023-02-16T17:27:27.038Z,9.77
2023-02-16T17:28:59.530Z,9.75
2023-02-16T17:30:32.151Z,9.72
2023-02-16T17:32:04.719Z,9.75
2023-02-16T17:33:36.618Z,9.72
2023-02-16T17:35:08.513Z,9.64
2023-02-16T17:36:40.324Z,9.66
2023-02-16T17:38:18.711Z,9.61
2023-02-16T17:39:50.622Z,9.58
2023-02-16T17:41:25.897Z,9.55
2023-02-16T17:42:57.818Z,9.53
2023-02-16T17:44:29.544Z,9.48
2023-02-16T17:46:04.878Z,9.42
2023-02-16T17:47:37.343Z,9.38
2023-02-16T17:49:11.521Z,9.23
2023-02-16T17:50:43.436Z,9.29
2023-02-16T17:52:15.121Z,9.26
2023-02-16T17:53:47.083Z,9.32
2023-02-16T17:55:19.041Z,9.20
2023-02-16T17:56:50.722Z,9.21
2023-02-16T17:58:24.121Z,9.13
2023-02-16T17:59:55.978Z,9.11
2023-02-16T18:01:27.785Z,9.09
2023-02-16T18:02:59.604Z,9.04
2023-02-16T18:04:31.284Z,8.97
2023-02-16T18:06:03.555Z,9.04
2023-02-16T18:07:35.543Z,8.99
2023-02-16T18:09:07.860Z,8.95
2023-02-16T18:10:46.136Z,8.89
2023-02-16T18:12:17.843Z,8.85
2023-02-16T18:13:49.458Z,8.85
2023-02-16T18:15:21.128Z,8.90
2023-02-16T18:16:53.613Z,8.88
2023-02-16T18:18:25.435Z,8.86
2023-02-16T18:19:57.070Z,8.84
2023-02-16T18:21:28.864Z,8.76
2023-02-16T18:23:00.624Z,8.72
2023-02-16T18:24:32.666Z,8.65
2023-02-16T18:26:05.747Z,8.77
2023-02-16T18:27:37.766Z,8.69
2023-02-16T18:29:10.018Z,8.62
2023-02-16T18:30:41.932Z,8.57
2023-02-16T18:32:13.742Z,8.50
2023-02-16T18:33:46.951Z,8.47
2023-02-16T18:35:18.920Z,8.48
2023-02-16T18:36:50.564Z,8.48
2023-02-16T18:38:22.626Z,8.47
2023-02-16T18:39:54.362Z,8.46
2023-02-16T18:41:26.184Z,8.47
2023-02-16T18:42:58.546Z,8.45
2023-02-16T18:44:30.294Z,8.45
2023-02-16T18:46:07.178Z,8.43
2023-02-16T18:47:39.223Z,8.46
2023-02-16T18:49:10.917Z,8.42
2023-02-16T18:50:43.090Z,8.39
2023-02-16T18:52:15.186Z,8.46
2023-02-16T18:53:47.152Z,8.34
2023-02-16T18:55:20.078Z,8.40
2023-02-16T18:56:52.058Z,8.39
2023-02-16T18:58:23.788Z,8.31
2023-02-16T18:59:55.671Z,8.32
2023-02-16T19:01:32.945Z,8.33
2023-02-16T19:03:04.768Z,8.35
2023-02-16T19:04:36.752Z,8.31
2023-02-16T19:06:08.908Z,8.28
2023-02-16T19:07:40.880Z,8.28
2023-02-16T19:09:12.853Z,8.33
2023-02-16T19:10:44.767Z,8.26
2023-02-16T19:12:16.988Z,8.20
2023-02-16T19:13:49.066Z,8.14
2023-02-16T19:15:21.078Z,8.14
2023-02-16T19:16:53.180Z,8.10
2023-02-16T19:18:26.685Z,8.05
2023-02-16T19:19:58.604Z,8.04
2023-02-16T19:21:30.504Z,8.03
2023-02-16T19:23:02.436Z,8.00
2023-02-16T19:24:35.288Z,7.94
2023-02-16T19:26:12.737Z,7.96
2023-02-16T19:27:45.117Z,7.96
2023-02-16T19:29:17.350Z,7.92
2023-02-16T19:30:50.219Z,7.96
2023-02-16T19:32:22.200Z,7.93
2023-02-16T19:33:55.959Z,7.91
2023-02-16T19:35:28.019Z,7.94
2023-02-16T19:36:59.907Z,7.88
2023-02-16T19:38:32.598Z,7.82
2023-02-16T19:40:08.583Z,7.89
2023-02-16T19:41:43.227Z,7.79
2023-02-16T19:43:15.167Z,7.75
2023-02-16T19:44:47.346Z,7.83
2023-02-16T19:46:20.353Z,7.76
2023-02-16T19:47:52.526Z,7.68
2023-02-16T19:49:25.273Z,7.70
2023-02-16T19:51:00.179Z,7.73
2023-02-16T19:52:33.371Z,7.71
2023-02-16T19:54:06.225Z,7.65
2023-02-16T19:55:42.217Z,7.59
2023-02-16T19:57:15.132Z,7.55
2023-02-16T19:58:48.995Z,7.51
2023-02-16T20:00:21.076Z,7.51
2023-02-16T20:01:52.916Z,7.49
2023-02-16T20:03:24.868Z,7.51
2023-02-16T20:04:56.567Z,7.52
2023-02-16T20:06:32.001Z,7.51
2023-02-16T20:08:03.775Z,7.48
2023-02-16T20:09:37.479Z,7.46
2023-02-16T20:11:09.444Z,7.50
2023-02-16T20:12:41.191Z,7.48
2023-02-16T20:14:13.641Z,7.64
2023-02-16T20:15:45.524Z,7.64
2023-02-16T20:17:17.632Z,7.45
2023-02-16T20:18:49.696Z,7.47
2023-02-16T20:20:21.592Z,7.48
2023-02-16T20:21:53.447Z,7.37
2023-02-16T20:23:25.201Z,7.37
2023-02-16T20:24:57.039Z,7.37
2023-02-16T20:26:34.125Z,7.42
2023-02-16T20:28:06.331Z,7.34
2023-02-16T20:29:38.551Z,7.42
2023-02-16T20:31:47.076Z,7.37
2023-02-16T20:33:19.752Z,7.37
2023-02-16T20:34:51.880Z,7.51
2023-02-16T20:36:23.779Z,7.44
2023-02-16T20:37:55.452Z,7.37
2023-02-16T20:39:27.800Z,7.35
2023-02-16T20:40:59.507Z,7.32
2023-02-16T20:42:31.209Z,7.33
2023-02-16T20:44:03.268Z,7.26
2023-02-16T20:45:37.230Z,7.26
2023-02-16T20:47:10.265Z,7.25
2023-02-16T20:48:42.395Z,7.18
2023-02-16T20:50:14.822Z,7.18
2023-02-16T20:51:46.639Z,7.14
2023-02-16T20:53:18.359Z,7.12
2023-02-16T20:54:50.044Z,7.12
2023-02-16T20:56:26.214Z,7.09
2023-02-16T20:57:59.481Z,7.15
2023-02-16T20:59:31.273Z,7.15
2023-02-16T21:01:10.092Z,7.16